Thursday, January 29, 2015
14:20 UTC
  |  Log In   |  Register Free
Airport Search:

Madison Airport
(KI39)

Madison Airport Diagram
No Airport Diagram Available

FAA data valid effective January 08, 2015 - March 05, 2015 (unless otherwise noted).

 
 
 
 
 
 
 
 
 
 
 
 
 
 

Current Aviation Weather for Madison Airport (KI39)

The most recent METAR observation for KI39 was updated at: 1412
METAR Summary (Translated METAR)
KI39
291355Z AUTO 19017G24KT 10SM OVC065 06/M02 A2995 RMK AO2
KDVK
291355Z AUTO 20016KT 10SM SCT065 BKN090 OVC110 03/M01 A2995 RMK AO2
(21 nm SW from KI39)
KLEX
291354Z 19016G28KT 10SM BKN075 05/M01 A2993 RMK AO2 PK WND 19028/1352 RAE06 SLP142 P0000 T00501011
(27.6 nm NW from KI39)
TAF Summary (Translated TAF)
KLEX
(28.6 nm NE from KDVK)
291120Z 2912/3012 19014KT P6SM -SHRA OVC060 WS018/21050KT FM291500 21014G24KT P6SM VCSH SCT050 BKN090 FM291900 27012G18KT P6SM BKN015 FM300200 31010KT P6SM BKN012
  Airport Weather Conditions for KI39

 Current Weather at I39
43° F
Overcast
South winds at 19.6 mph
I39 NOAA Radar

Pressure: 29.95 in
Humidity: 57%
Wind: from the South at 19.6 gusting to 27.6 MPH (17 gusting to 24 KT)
Dew Point: 28.4°F
Visibility: 10.00 mi


Airport Weather Forecast for KI39

Translated METAR and TAF for KDVK
Translated METAR for KDVK (1421 UTC 29 January 2015)
found at http://aviationweather.gov/adds/metars/
 
METAR text: KDVK 291415Z AUTO 21013G19KT 10SM SCT075 SCT095 BKN110 04/00 A2996 RMK AO2
Conditions at: KDVK (DANVILLE , KY, US) observed 1415 UTC 29 January 2015
Temperature: 4.0°C (39°F)
Dewpoint: 0.0°C (32°F) [RH = 75%]
Pressure (altimeter): 29.96 inches Hg (1014.6 mb)
Winds: from the SSW (210 degrees) at 15 MPH (13 knots; 6.8 m/s)
gusting to 22 MPH (19 knots; 9.9 m/s)
Visibility: 10 or more miles (16+ km)
Ceiling: 11000 feet AGL
Clouds: scattered clouds at 7500 feet AGL
scattered clouds at 9500 feet AGL
broken clouds at 11000 feet AGL
Weather: automated observation with no human augmentation;
there may or may not be significant weather present at this time
Translated TAF for KDVK

There is no translated TAF available for this airport

Find All Airport Services Find A Hotel Find A Rental Car Find A Golf Course Find A Restaurant $100 Hamburger



FBO's on the Field
FBO Company Facility Photos Services Transportation Aviation Fuel Prices: Prices include tax
Catering Weather Repair Courtesy Rental Type 100LL JetA JetA+ MOGAS 8087
 
Eastern Kentucky University

This FBO has not yet been rated
FS:Shell
Last Updated: Dec-30
Login to update fuel prices
SS:
Contact Eastern Kentucky UniversityMore FBO Information
 
Add another FBO Facility Photos Catering Weather Repair Courtesy Rental Type 100LL JetA JetA+ MOGAS 8087
Services Transportation Aviation Fuel Prices: Prices include tax


model-print
model-print
model-print
model-print